Aeroporto :







RITROVATECI SU...

 
LOGIN :

Iscrizione | Disclaimer

   EN    FR    IT 

 









Sommario :    VFR   VFR Marginale   IFR   IFR Intensivo   IFR Molto Intensivo
Visibilità : 
Base nubi : 
>= 8 km
>= 3000ft
5 / 8 km
1000 / 3000 ft
1500m / 5 km
500 / 1000 ft
800 / 1500m
200 / 500 ft
< 800m
< 200 ft
Simboli :   Temporali  Nebbia  Neve Forte  Precipitazioni Forti  Vento > 20 kt






- Altitudine del aeroporto : 9 ft
- Codice IATA : SJU


TJSJ - Luis Munoz Marin Int.

ULTIMO METAR :
  • 040256Z 32004KT 10SM SCT042 27/22 A2994 RMK AO2 SLP138 T02720217 51011

METARs OBSOLETI :
  • 040156Z 36005KT 10SM FEW043 27/22 A2993 RMK AO2 SLP135 T02720217
  • 040056Z 35005KT 10SM FEW045 27/22 A2992 RMK AO2 SLP131 T02720217

TAF TJSJ
Valido dal 04 a 00 ore il 05 a 00 ore UTC


032320Z 0400/0424 VRB05KT P6SM FEW035 FEW050
FM041500 33008KT P6SM FEW030 FEW050
FM041800 35008KT P6SM VCSH SCT025 SCT050
FM042200 VRB04KT P6SM FEW035 SCT050



MetMap, La meteo Aeronautica in un colpo d'occhio ! - Copyright ORBIFLY Dicembre 2007 - Disclaimer

ORBIFLY MET'MAP TEAM :

Programmazione e sviluppo : Alexandra Zaïnal
Concezione : Baudouin d'Aumeries
Aiuto per la programmazione : Marc-Olivier Méhu
Supporto tecnico e logistico : Manuel Goepfert
Aiuto per la traduzione : Arnaldo La Scala

Contatto : metmap@orbifly.com




FONTI E CREDITI :

   NOAA